createdAt,value
2024-01-30T00:02:53.315Z,39.50
2024-01-30T00:05:56.902Z,36.03
2024-01-30T00:09:01.137Z,31.55
2024-01-30T00:12:03.560Z,85.93
2024-01-30T00:15:06.196Z,90.90
2024-01-30T00:18:08.284Z,326.10
2024-01-30T00:21:10.649Z,60.60
2024-01-30T00:24:13.011Z,74.40
2024-01-30T00:27:15.093Z,39.05
2024-01-30T00:30:17.609Z,38.58
2024-01-30T00:33:20.003Z,43.47
2024-01-30T00:36:22.347Z,40.42
2024-01-30T00:39:24.654Z,41.70
2024-01-30T00:42:27.392Z,36.55
2024-01-30T00:45:29.760Z,62.22
2024-01-30T00:48:32.086Z,41.47
2024-01-30T00:51:34.382Z,43.78
2024-01-30T00:54:36.788Z,44.85
2024-01-30T00:57:39.107Z,37.75
2024-01-30T01:00:41.667Z,38.15
2024-01-30T01:03:44.998Z,31.55
2024-01-30T01:06:47.727Z,35.63
2024-01-30T01:09:49.844Z,33.63
2024-01-30T01:12:51.977Z,31.35
2024-01-30T01:15:54.876Z,34.05
2024-01-30T01:18:57.074Z,35.83
2024-01-30T01:21:59.578Z,34.97
2024-01-30T01:25:02.360Z,42.13
2024-01-30T01:28:05.068Z,33.90
2024-01-30T01:31:07.449Z,38.08
2024-01-30T01:34:09.639Z,39.25
2024-01-30T01:37:12.185Z,38.65
2024-01-30T01:40:14.618Z,37.42
2024-01-30T01:43:16.915Z,40.88
2024-01-30T01:46:19.336Z,43.70
2024-01-30T01:49:24.443Z,34.65
2024-01-30T01:52:27.015Z,38.30
2024-01-30T01:55:30.609Z,41.83
2024-01-30T01:58:33.202Z,36.78
2024-01-30T02:01:38.161Z,37.88
2024-01-30T02:04:40.860Z,48.72
2024-01-30T02:07:44.735Z,94.05
2024-01-30T02:10:47.204Z,63.33
2024-01-30T02:13:50.024Z,46.95
2024-01-30T02:16:52.357Z,46.83
2024-01-30T02:19:54.616Z,33.58
2024-01-30T02:22:59.743Z,37.72
2024-01-30T02:26:02.451Z,36.65
2024-01-30T02:29:04.770Z,35.45
2024-01-30T02:32:07.519Z,36.95
2024-01-30T02:35:09.580Z,35.40
2024-01-30T02:38:11.912Z,40.45
2024-01-30T02:41:14.683Z,37.15
2024-01-30T02:44:16.969Z,44.22
2024-01-30T02:47:19.281Z,45.22
2024-01-30T02:50:21.678Z,37.33
2024-01-30T02:53:24.045Z,46.92
2024-01-30T02:56:26.276Z,40.90
2024-01-30T02:59:28.630Z,50.25
2024-01-30T03:02:31.231Z,47.78
2024-01-30T03:05:33.636Z,35.47
2024-01-30T03:08:36.275Z,43.80
2024-01-30T03:11:38.580Z,50.97
2024-01-30T03:14:40.631Z,47.55
2024-01-30T03:17:43.308Z,39.42
2024-01-30T03:20:45.792Z,34.97
2024-01-30T03:23:48.468Z,36.60
2024-01-30T03:26:50.825Z,41.25
2024-01-30T03:29:53.214Z,30.33
2024-01-30T03:32:55.467Z,33.33
2024-01-30T03:35:57.852Z,39.03
2024-01-30T03:39:00.282Z,37.67
2024-01-30T03:42:02.558Z,34.50
2024-01-30T03:45:05.092Z,32.65
2024-01-30T03:48:07.965Z,39.67
2024-01-30T03:51:15.648Z,33.97
2024-01-30T03:54:17.955Z,32.08
2024-01-30T03:57:20.252Z,34.85
2024-01-30T04:00:22.556Z,30.55
2024-01-30T04:03:24.906Z,31.88
2024-01-30T04:06:27.817Z,34.80
2024-01-30T04:09:29.880Z,32.15
2024-01-30T04:12:32.548Z,33.75
2024-01-30T04:15:34.938Z,33.20
2024-01-30T04:18:37.075Z,64.50
2024-01-30T04:21:39.475Z,56.83
2024-01-30T04:24:41.829Z,115.13
2024-01-30T04:27:43.995Z,247.68
2024-01-30T04:30:46.441Z,401.95
2024-01-30T04:33:48.943Z,157.25
2024-01-30T04:36:51.526Z,404.65
2024-01-30T04:39:53.991Z,499.33
2024-01-30T04:42:56.086Z,470.13
2024-01-30T04:45:58.509Z,249.20
2024-01-30T04:49:00.914Z,155.32
2024-01-30T04:52:03.627Z,58.67
2024-01-30T04:55:06.579Z,50.85
2024-01-30T04:58:09.118Z,46.67
2024-01-30T05:01:15.697Z,45.50
2024-01-30T05:04:18.388Z,44.35
2024-01-30T05:07:20.953Z,50.28
2024-01-30T05:10:23.113Z,46.15
2024-01-30T05:13:25.305Z,48.08
2024-01-30T05:16:27.714Z,38.80
2024-01-30T05:19:30.239Z,40.08
2024-01-30T05:22:32.470Z,52.83
2024-01-30T05:25:34.932Z,48.38
2024-01-30T05:28:37.661Z,47.70
2024-01-30T05:31:39.795Z,42.20
2024-01-30T05:34:42.307Z,36.63
2024-01-30T05:37:44.665Z,39.05
2024-01-30T05:40:47.067Z,39.33
2024-01-30T05:43:49.353Z,36.20
2024-01-30T05:46:51.721Z,38.30
2024-01-30T05:49:54.063Z,39.83
2024-01-30T05:52:56.383Z,47.00
2024-01-30T05:55:58.609Z,42.42
2024-01-30T05:59:00.594Z,46.92
2024-01-30T06:02:02.986Z,40.38
2024-01-30T06:05:05.617Z,39.63
2024-01-30T06:08:07.996Z,43.97
2024-01-30T06:11:13.463Z,51.63
2024-01-30T06:14:15.773Z,44.00
2024-01-30T06:17:18.260Z,48.45
2024-01-30T06:20:21.383Z,40.35
2024-01-30T06:23:23.505Z,43.90
2024-01-30T06:26:25.597Z,56.13
2024-01-30T06:29:28.039Z,52.70
2024-01-30T06:32:35.342Z,47.55
2024-01-30T06:35:43.938Z,55.45
2024-01-30T06:38:47.252Z,48.67
2024-01-30T06:41:49.548Z,47.05
2024-01-30T06:44:51.884Z,41.88
2024-01-30T06:47:53.948Z,47.55
2024-01-30T06:50:56.339Z,45.05
2024-01-30T06:53:58.921Z,46.70
2024-01-30T06:57:01.604Z,44.78
2024-01-30T07:00:04.513Z,47.45
2024-01-30T07:03:07.261Z,50.38
2024-01-30T07:06:10.469Z,42.13
2024-01-30T07:09:14.852Z,53.10
2024-01-30T07:12:17.367Z,51.20
2024-01-30T07:15:21.566Z,54.72
2024-01-30T07:18:23.958Z,61.35
2024-01-30T07:21:29.406Z,60.13
2024-01-30T07:24:31.702Z,62.03
2024-01-30T07:27:33.904Z,59.75
2024-01-30T07:30:36.419Z,62.78
2024-01-30T07:33:38.805Z,61.83
2024-01-30T07:36:41.224Z,70.00
2024-01-30T07:39:44.045Z,71.82
2024-01-30T07:42:46.140Z,62.22
2024-01-30T07:45:48.383Z,67.35
2024-01-30T07:48:52.916Z,72.68
2024-01-30T07:51:57.055Z,71.43
2024-01-30T07:54:59.449Z,65.55
2024-01-30T07:58:01.928Z,75.40
2024-01-30T08:01:04.295Z,79.45
2024-01-30T08:04:06.872Z,75.07
2024-01-30T08:07:09.277Z,75.07
2024-01-30T08:10:14.467Z,79.30
2024-01-30T08:13:16.917Z,76.25
2024-01-30T08:16:19.301Z,75.32
2024-01-30T08:19:21.479Z,83.85
2024-01-30T08:22:23.716Z,75.60
2024-01-30T08:25:26.041Z,59.90
2024-01-30T08:28:28.478Z,61.50
2024-01-30T08:31:30.920Z,56.75
2024-01-30T08:34:33.552Z,55.38
2024-01-30T08:37:38.210Z,52.33
2024-01-30T08:40:40.369Z,56.65
2024-01-30T08:43:42.503Z,56.55
2024-01-30T08:46:47.888Z,57.20
2024-01-30T08:49:50.336Z,61.30
2024-01-30T08:52:52.790Z,62.63
2024-01-30T08:55:55.185Z,62.55
2024-01-30T08:58:57.436Z,58.97
2024-01-30T09:02:07.319Z,64.25
2024-01-30T09:05:14.757Z,56.13
2024-01-30T09:08:17.264Z,56.80
2024-01-30T09:11:19.832Z,53.75
2024-01-30T09:14:22.088Z,52.17
2024-01-30T09:17:24.437Z,70.32
2024-01-30T09:20:26.829Z,59.67
2024-01-30T09:23:29.544Z,69.40
2024-01-30T09:26:31.998Z,63.67
2024-01-30T09:29:35.488Z,55.95
2024-01-30T09:32:37.876Z,52.63
2024-01-30T09:35:40.134Z,55.40
2024-01-30T09:38:42.850Z,56.83
2024-01-30T09:42:11.960Z,52.22
2024-01-30T09:45:15.515Z,50.22
2024-01-30T09:48:17.616Z,42.85
2024-01-30T09:51:21.396Z,43.60
2024-01-30T09:54:24.439Z,42.25
2024-01-30T09:57:27.406Z,39.38
2024-01-30T10:00:29.784Z,44.20
2024-01-30T10:03:32.326Z,44.85
2024-01-30T10:06:35.554Z,40.60
2024-01-30T10:09:38.992Z,48.13
2024-01-30T10:12:41.437Z,46.42
2024-01-30T10:15:43.899Z,44.47
2024-01-30T10:18:46.515Z,47.60
2024-01-30T10:21:49.396Z,46.83
2024-01-30T10:24:51.937Z,43.22
2024-01-30T10:27:57.958Z,45.05
2024-01-30T10:31:07.536Z,48.08
2024-01-30T10:37:27.346Z,50.03
2024-01-30T10:40:30.773Z,47.40
2024-01-30T10:43:43.664Z,42.75
2024-01-30T10:46:51.419Z,38.22
2024-01-30T10:49:55.038Z,42.33
2024-01-30T10:52:58.544Z,34.47
2024-01-30T10:56:01.974Z,38.33
2024-01-30T10:59:04.937Z,32.42
2024-01-30T11:02:08.228Z,29.92
2024-01-30T11:05:11.077Z,25.63
2024-01-30T11:08:14.545Z,28.83
2024-01-30T11:11:18.768Z,28.88
2024-01-30T11:14:27.877Z,32.25
2024-01-30T11:17:40.322Z,27.13
2024-01-30T11:20:48.345Z,26.40
2024-01-30T11:23:51.176Z,26.60
2024-01-30T11:27:09.072Z,31.10
2024-01-30T11:30:11.955Z,23.80
2024-01-30T11:33:15.747Z,25.48
2024-01-30T11:36:18.978Z,25.45
2024-01-30T11:39:23.100Z,23.73
2024-01-30T11:42:28.889Z,26.52
2024-01-30T11:45:31.008Z,22.88
2024-01-30T11:48:33.530Z,23.42
2024-01-30T11:51:35.921Z,20.98
2024-01-30T11:54:41.410Z,24.83
2024-01-30T11:57:45.637Z,22.92
2024-01-30T12:00:58.823Z,21.15
2024-01-30T12:04:01.574Z,21.55
2024-01-30T12:07:04.871Z,20.10
2024-01-30T12:10:10.831Z,20.45
2024-01-30T12:13:15.210Z,19.98
2024-01-30T12:16:17.349Z,17.40
2024-01-30T12:19:24.367Z,21.83
2024-01-30T12:22:26.622Z,19.17
2024-01-30T12:25:29.058Z,18.83
2024-01-30T12:28:31.472Z,15.05
2024-01-30T12:31:34.639Z,19.30
2024-01-30T12:34:53.829Z,16.65
2024-01-30T12:37:59.639Z,19.63
2024-01-30T12:41:02.061Z,17.00
2024-01-30T12:44:04.257Z,23.45
2024-01-30T12:47:06.783Z,19.42
2024-01-30T12:50:09.689Z,17.42
2024-01-30T12:53:13.685Z,25.70
2024-01-30T12:56:16.835Z,21.95
2024-01-30T12:59:18.984Z,18.45
2024-01-30T13:02:21.577Z,16.52
2024-01-30T13:05:24.048Z,23.60
2024-01-30T13:08:26.253Z,18.70
2024-01-30T13:11:28.373Z,23.67
2024-01-30T13:14:30.720Z,16.23
2024-01-30T13:17:34.435Z,19.98
2024-01-30T13:20:36.750Z,15.23
2024-01-30T13:23:39.150Z,19.75
2024-01-30T13:26:43.680Z,16.92
2024-01-30T13:29:46.025Z,16.88
2024-01-30T13:32:48.377Z,15.07
2024-01-30T13:35:51.113Z,17.75
2024-01-30T13:38:53.206Z,14.57
2024-01-30T13:41:55.876Z,16.30
2024-01-30T13:44:58.332Z,18.00
2024-01-30T13:48:00.689Z,18.73
2024-01-30T13:51:03.343Z,19.35
2024-01-30T13:54:05.808Z,17.33
2024-01-30T13:57:09.866Z,20.00
2024-01-30T14:00:12.740Z,26.20
2024-01-30T14:03:15.446Z,21.77
2024-01-30T14:06:17.604Z,17.23
2024-01-30T14:09:20.056Z,18.80
2024-01-30T14:12:22.243Z,19.77
2024-01-30T14:15:28.809Z,18.10
2024-01-30T14:18:32.136Z,15.60
2024-01-30T14:21:34.194Z,17.88
2024-01-30T14:24:36.299Z,17.45
2024-01-30T14:27:38.336Z,15.18
2024-01-30T14:30:40.669Z,16.60
2024-01-30T14:33:43.449Z,16.67
2024-01-30T14:36:46.390Z,14.80
2024-01-30T14:39:51.915Z,13.48
2024-01-30T14:42:54.249Z,14.45
2024-01-30T14:45:57.003Z,15.15
2024-01-30T14:49:00.440Z,13.20
2024-01-30T14:52:05.484Z,11.85
2024-01-30T14:55:08.344Z,12.15
2024-01-30T14:58:10.732Z,13.00
2024-01-30T15:01:13.182Z,34.35
2024-01-30T15:04:15.898Z,14.73
2024-01-30T15:07:25.374Z,14.48
2024-01-30T15:10:35.086Z,15.35
2024-01-30T15:13:37.468Z,17.98
2024-01-30T15:16:40.443Z,16.63
2024-01-30T15:19:42.647Z,12.95
2024-01-30T15:22:46.208Z,47.28
2024-01-30T15:25:48.951Z,16.08
2024-01-30T15:28:51.795Z,17.30
2024-01-30T15:31:53.977Z,16.83
2024-01-30T15:34:58.182Z,19.23
2024-01-30T15:38:00.513Z,14.50
2024-01-30T15:41:02.630Z,14.68
2024-01-30T15:44:05.339Z,11.10
2024-01-30T15:47:07.416Z,12.88
2024-01-30T15:50:12.655Z,14.98
2024-01-30T15:53:14.949Z,15.15
2024-01-30T15:56:17.285Z,12.43
2024-01-30T15:59:19.675Z,14.27
2024-01-30T16:02:22.365Z,13.20
2024-01-30T16:05:24.726Z,13.90
2024-01-30T16:08:26.743Z,17.35
2024-01-30T16:11:29.269Z,16.85
2024-01-30T16:14:31.603Z,30.85
2024-01-30T16:17:36.939Z,30.27
2024-01-30T16:20:39.479Z,19.33
2024-01-30T16:23:42.085Z,21.35
2024-01-30T16:26:44.206Z,29.30
2024-01-30T16:29:46.333Z,25.90
2024-01-30T16:32:48.832Z,17.10
2024-01-30T16:35:53.989Z,42.40
2024-01-30T16:38:58.857Z,21.70
2024-01-30T16:42:01.175Z,18.88
2024-01-30T16:45:03.441Z,21.42
2024-01-30T16:48:06.469Z,22.33
2024-01-30T16:51:08.688Z,15.80
2024-01-30T16:54:10.721Z,19.40
2024-01-30T16:57:13.065Z,18.30
2024-01-30T17:00:16.208Z,20.70
2024-01-30T17:03:18.808Z,23.83
2024-01-30T17:06:20.957Z,24.20
2024-01-30T17:09:23.678Z,22.70
2024-01-30T17:12:25.753Z,17.35
2024-01-30T17:15:27.891Z,16.92
2024-01-30T17:18:31.736Z,15.57
2024-01-30T17:21:35.532Z,18.30
2024-01-30T17:24:46.481Z,21.25
2024-01-30T17:27:52.887Z,18.13
2024-01-30T17:30:55.329Z,16.73
2024-01-30T17:33:57.796Z,15.70
2024-01-30T17:37:00.050Z,38.00
2024-01-30T17:40:03.221Z,21.35
2024-01-30T17:43:05.554Z,26.17
2024-01-30T17:46:08.203Z,29.98
2024-01-30T17:49:10.488Z,23.73
2024-01-30T17:52:13.020Z,19.58
2024-01-30T17:55:15.266Z,22.48
2024-01-30T17:58:17.677Z,20.60
2024-01-30T18:01:20.410Z,16.90
2024-01-30T18:04:23.624Z,38.53
2024-01-30T18:07:26.132Z,41.88
2024-01-30T18:10:28.313Z,26.95
2024-01-30T18:13:30.560Z,29.42
2024-01-30T18:16:33.549Z,20.45
2024-01-30T18:19:35.953Z,20.92
2024-01-30T18:22:43.083Z,21.02
2024-01-30T18:25:45.333Z,24.08
2024-01-30T18:28:47.742Z,25.73
2024-01-30T18:31:50.016Z,31.02
2024-01-30T18:34:52.378Z,28.70
2024-01-30T18:37:54.558Z,29.75
2024-01-30T18:40:56.712Z,28.45
2024-01-30T18:43:59.800Z,26.77
2024-01-30T18:47:02.425Z,27.98
2024-01-30T18:50:05.296Z,27.65
2024-01-30T18:53:08.330Z,31.67
2024-01-30T18:56:13.149Z,37.17
2024-01-30T18:59:19.468Z,31.88
2024-01-30T19:02:22.902Z,36.25
2024-01-30T19:05:25.906Z,37.70
2024-01-30T19:08:28.901Z,36.08
2024-01-30T19:11:31.580Z,36.33
2024-01-30T19:14:35.821Z,40.00
2024-01-30T19:17:39.013Z,40.10
2024-01-30T19:20:42.813Z,37.92
2024-01-30T19:23:45.755Z,38.72
2024-01-30T19:26:49.639Z,39.00
2024-01-30T19:29:53.658Z,41.85
2024-01-30T19:32:56.753Z,40.67
2024-01-30T19:36:02.834Z,36.95
2024-01-30T19:39:12.637Z,36.83
2024-01-30T19:42:15.887Z,37.28
2024-01-30T19:45:18.510Z,35.58
2024-01-30T19:48:22.301Z,36.17
2024-01-30T19:51:24.898Z,37.78
2024-01-30T19:54:29.169Z,36.47
2024-01-30T19:57:31.697Z,31.33
2024-01-30T20:00:34.301Z,35.22
2024-01-30T20:03:36.881Z,36.60
2024-01-30T20:06:40.903Z,28.23
2024-01-30T20:09:43.550Z,31.40
2024-01-30T20:12:45.985Z,33.90
2024-01-30T20:15:48.251Z,36.42
2024-01-30T20:18:50.518Z,41.03
2024-01-30T20:21:53.219Z,40.00
2024-01-30T20:25:04.167Z,37.72
2024-01-30T20:28:13.935Z,35.60
2024-01-30T20:31:16.413Z,30.67
2024-01-30T20:34:18.827Z,34.53
2024-01-30T20:37:21.477Z,36.40
2024-01-30T20:40:24.733Z,43.33
2024-01-30T20:43:27.631Z,44.45
2024-01-30T20:46:31.516Z,46.90
2024-01-30T20:49:34.894Z,41.47
2024-01-30T20:52:37.667Z,42.83
2024-01-30T20:55:40.329Z,37.55
2024-01-30T20:58:43.302Z,45.58
2024-01-30T21:01:45.823Z,47.70
2024-01-30T21:04:48.218Z,43.33
2024-01-30T21:07:53.612Z,47.20
2024-01-30T21:10:56.052Z,49.85
2024-01-30T21:13:58.354Z,52.30
2024-01-30T21:17:02.213Z,48.33
2024-01-30T21:20:05.517Z,45.50
2024-01-30T21:23:08.025Z,41.97
2024-01-30T21:26:10.176Z,43.30
2024-01-30T21:29:12.258Z,55.70
2024-01-30T21:32:14.373Z,49.78
2024-01-30T21:35:16.602Z,54.33
2024-01-30T21:38:20.334Z,48.25
2024-01-30T21:41:23.524Z,46.08
2024-01-30T21:44:27.675Z,43.03
2024-01-30T21:47:31.245Z,45.17
2024-01-30T21:50:33.595Z,45.83
2024-01-30T21:53:35.867Z,43.05
2024-01-30T21:56:38.730Z,41.35
2024-01-30T21:59:42.856Z,40.40
2024-01-30T22:02:45.070Z,40.28
2024-01-30T22:05:47.384Z,53.60
2024-01-30T22:08:49.557Z,44.65
2024-01-30T22:11:51.844Z,42.20
2024-01-30T22:14:54.247Z,44.63
2024-01-30T22:17:56.313Z,42.10
2024-01-30T22:20:58.690Z,48.75
2024-01-30T22:24:00.940Z,45.90
2024-01-30T22:27:03.204Z,45.35
2024-01-30T22:30:06.201Z,47.95
2024-01-30T22:33:09.848Z,48.80
2024-01-30T22:36:11.950Z,49.75
2024-01-30T22:39:14.739Z,47.20
2024-01-30T22:42:17.168Z,45.17
2024-01-30T22:45:19.284Z,57.42
2024-01-30T22:48:21.692Z,53.35
2024-01-30T22:51:23.910Z,63.10
2024-01-30T22:54:26.327Z,52.05
2024-01-30T22:57:29.151Z,47.03
2024-01-30T23:00:32.744Z,53.88
2024-01-30T23:03:36.378Z,45.30
2024-01-30T23:06:38.883Z,46.80
2024-01-30T23:09:43.734Z,40.45
2024-01-30T23:12:48.032Z,50.22
2024-01-30T23:15:50.182Z,47.97
2024-01-30T23:18:52.519Z,46.08
2024-01-30T23:21:54.828Z,48.78
2024-01-30T23:24:57.206Z,51.58
2024-01-30T23:27:59.391Z,47.08
2024-01-30T23:31:01.839Z,47.45
2024-01-30T23:34:04.231Z,39.92
2024-01-30T23:37:06.698Z,46.75
2024-01-30T23:40:11.553Z,71.72
2024-01-30T23:43:13.931Z,49.50
2024-01-30T23:46:16.342Z,85.10
2024-01-30T23:49:19.075Z,49.05
2024-01-30T23:52:22.263Z,47.28
2024-01-30T23:55:25.110Z,53.05
2024-01-30T23:58:27.193Z,49.55
